Terminal Aerodrome Forecast
Issued by NWS

Home | Current Version | Previous Version | Text Only | Print | Product List | Glossary On
Versions: 1 2 3 4 5 6 7 8 9 10 11 12
000
FTAK31 PAFA 201120
TAFAMC
TAF
PAMC 201120Z 2012/2112 VRB03KT P6SM FEW100 BKN200
     FM210800 02008G15KT P6SM VCSH BKN050 OVC100
     FM211000 02007KT P6SM -SHSN SCT035 BKN050 OVC100=

USA.gov is the U.S. government's official web portal to all federal, state and local government web resources and services.